sensor_id;sensor_type;location;lat;lon;timestamp;pressure;altitude;pressure_sealevel;temperature;humidity
11001;BME280;5553;48.506;8.870;2023-05-03T05:35:25;97325.53;;;6.98;100.00
11001;BME280;5553;48.506;8.870;2023-05-03T05:37:53;97328.97;;;7.17;100.00
11001;BME280;5553;48.506;8.870;2023-05-03T05:40:21;97325.22;;;7.19;100.00
11001;BME280;5553;48.506;8.870;2023-05-03T05:42:50;97328.84;;;7.18;100.00
11001;BME280;5553;48.506;8.870;2023-05-03T05:45:18;97329.72;;;7.27;100.00
11001;BME280;5553;48.506;8.870;2023-05-03T05:47:47;97327.53;;;7.40;100.00
11001;BME280;5553;48.506;8.870;2023-05-03T05:50:15;97325.16;;;7.29;100.00
11001;BME280;5553;48.506;8.870;2023-05-03T05:52:46;97325.59;;;7.42;100.00
11001;BME280;5553;48.506;8.870;2023-05-03T05:55:15;97319.28;;;7.53;100.00
11001;BME280;5553;48.506;8.870;2023-05-03T05:57:43;97315.19;;;7.58;100.00
11001;BME280;5553;48.506;8.870;2023-05-03T06:00:13;97316.56;;;7.63;100.00
11001;BME280;5553;48.506;8.870;2023-05-03T06:02:41;97307.03;;;7.62;100.00
11001;BME280;5553;48.506;8.870;2023-05-03T06:05:10;97315.53;;;7.81;100.00
11001;BME280;5553;48.506;8.870;2023-05-03T06:07:38;97315.00;;;7.78;100.00
11001;BME280;5553;48.506;8.870;2023-05-03T06:10:10;97301.03;;;7.69;100.00
11001;BME280;5553;48.506;8.870;2023-05-03T06:12:38;97297.63;;;7.77;100.00
11001;BME280;5553;48.506;8.870;2023-05-03T06:15:07;97301.84;;;7.70;100.00
11001;BME280;5553;48.506;8.870;2023-05-03T06:17:36;97308.63;;;7.80;100.00
11001;BME280;5553;48.506;8.870;2023-05-03T06:20:05;97301.19;;;7.76;100.00
11001;BME280;5553;48.506;8.870;2023-05-03T06:22:36;97300.69;;;7.72;100.00
11001;BME280;5553;48.506;8.870;2023-05-03T06:25:05;97295.13;;;7.75;100.00
11001;BME280;5553;48.506;8.870;2023-05-03T06:27:36;97292.94;;;7.63;100.00
11001;BME280;5553;48.506;8.870;2023-05-03T06:30:06;97299.56;;;7.75;100.00
11001;BME280;5553;48.506;8.870;2023-05-03T06:32:37;97302.59;;;7.88;100.00
11001;BME280;5553;48.506;8.870;2023-05-03T06:35:06;97295.00;;;7.77;100.00
11001;BME280;5553;48.506;8.870;2023-05-03T06:37:35;97289.22;;;7.73;100.00
11001;BME280;5553;48.506;8.870;2023-05-03T06:40:05;97292.78;;;7.90;100.00
11001;BME280;5553;48.506;8.870;2023-05-03T06:42:36;97295.44;;;7.72;100.00
11001;BME280;5553;48.506;8.870;2023-05-03T06:45:06;97300.19;;;7.95;100.00
11001;BME280;5553;48.506;8.870;2023-05-03T06:47:34;97308.09;;;8.03;100.00
11001;BME280;5553;48.506;8.870;2023-05-03T06:50:05;97302.13;;;8.19;100.00
11001;BME280;5553;48.506;8.870;2023-05-03T06:52:33;97298.25;;;8.31;100.00
11001;BME280;5553;48.506;8.870;2023-05-03T06:55:01;97304.13;;;8.33;100.00
11001;BME280;5553;48.506;8.870;2023-05-03T06:57:30;97299.31;;;8.20;100.00
11001;BME280;5553;48.506;8.870;2023-05-03T07:00:01;97285.41;;;8.28;100.00
11001;BME280;5553;48.506;8.870;2023-05-03T07:02:31;97285.09;;;8.31;100.00
11001;BME280;5553;48.506;8.870;2023-05-03T07:04:59;97281.59;;;8.22;100.00
11001;BME280;5553;48.506;8.870;2023-05-03T07:07:28;97275.22;;;7.99;100.00
11001;BME280;5553;48.506;8.870;2023-05-03T07:09:56;97276.94;;;8.50;100.00
11001;BME280;5553;48.506;8.870;2023-05-03T07:12:24;97270.44;;;8.28;100.00
11001;BME280;5553;48.506;8.870;2023-05-03T07:14:53;97269.69;;;8.10;100.00
11001;BME280;5553;48.506;8.870;2023-05-03T07:17:24;97278.16;;;8.30;100.00
11001;BME280;5553;48.506;8.870;2023-05-03T07:19:53;97274.38;;;8.59;100.00
11001;BME280;5553;48.506;8.870;2023-05-03T07:22:21;97272.88;;;8.56;100.00
11001;BME280;5553;48.506;8.870;2023-05-03T07:24:49;97269.78;;;8.69;100.00
11001;BME280;5553;48.506;8.870;2023-05-03T07:27:18;97260.59;;;8.81;100.00
11001;BME280;5553;48.506;8.870;2023-05-03T07:29:47;97259.94;;;8.79;100.00
11001;BME280;5553;48.506;8.870;2023-05-03T07:32:15;97255.47;;;8.71;100.00
11001;BME280;5553;48.506;8.870;2023-05-03T07:34:46;97262.91;;;8.76;100.00
11001;BME280;5553;48.506;8.870;2023-05-03T07:37:14;97263.06;;;8.91;100.00
11001;BME280;5553;48.506;8.870;2023-05-03T07:39:42;97265.72;;;9.07;100.00
11001;BME280;5553;48.506;8.870;2023-05-03T07:42:11;97257.00;;;9.07;100.00
11001;BME280;5553;48.506;8.870;2023-05-03T07:44:39;97257.31;;;8.95;100.00
11001;BME280;5553;48.506;8.870;2023-05-03T07:47:07;97253.38;;;9.32;100.00
11001;BME280;5553;48.506;8.870;2023-05-03T07:49:36;97248.94;;;9.08;100.00
11001;BME280;5553;48.506;8.870;2023-05-03T07:52:07;97248.28;;;9.22;100.00
11001;BME280;5553;48.506;8.870;2023-05-03T07:54:35;97244.84;;;9.30;100.00
11001;BME280;5553;48.506;8.870;2023-05-03T07:57:03;97238.22;;;9.42;100.00
11001;BME280;5553;48.506;8.870;2023-05-03T07:59:32;97237.03;;;9.69;100.00
11001;BME280;5553;48.506;8.870;2023-05-03T08:02:00;97233.91;;;9.66;100.00
11001;BME280;5553;48.506;8.870;2023-05-03T08:04:28;97239.19;;;9.66;100.00
11001;BME280;5553;48.506;8.870;2023-05-03T08:06:59;97239.31;;;9.89;100.00
11001;BME280;5553;48.506;8.870;2023-05-03T08:09:31;97236.31;;;10.00;100.00
11001;BME280;5553;48.506;8.870;2023-05-03T08:12:00;97241.00;;;10.29;100.00
11001;BME280;5553;48.506;8.870;2023-05-03T08:14:28;97228.78;;;10.36;100.00
11001;BME280;5553;48.506;8.870;2023-05-03T08:16:58;97228.00;;;10.82;100.00
11001;BME280;5553;48.506;8.870;2023-05-03T08:19:26;97230.75;;;10.65;100.00
11001;BME280;5553;48.506;8.870;2023-05-03T08:21:54;97227.59;;;10.70;100.00
11001;BME280;5553;48.506;8.870;2023-05-03T08:24:23;97226.41;;;10.50;100.00
11001;BME280;5553;48.506;8.870;2023-05-03T08:26:54;97237.41;;;10.84;100.00
11001;BME280;5553;48.506;8.870;2023-05-03T08:29:23;97234.09;;;11.28;100.00
11001;BME280;5553;48.506;8.870;2023-05-03T08:31:51;97225.66;;;11.10;100.00
11001;BME280;5553;48.506;8.870;2023-05-03T08:34:20;97225.19;;;11.44;100.00
11001;BME280;5553;48.506;8.870;2023-05-03T08:36:48;97214.00;;;11.57;100.00
11001;BME280;5553;48.506;8.870;2023-05-03T08:39:16;97204.72;;;12.20;100.00
11001;BME280;5553;48.506;8.870;2023-05-03T08:41:45;97200.38;;;13.56;100.00
11001;BME280;5553;48.506;8.870;2023-05-03T08:44:19;97177.84;;;14.15;100.00
11001;BME280;5553;48.506;8.870;2023-05-03T08:46:48;97188.34;;;15.71;100.00
11001;BME280;5553;48.506;8.870;2023-05-03T08:49:17;97124.34;;;15.46;100.00
11001;BME280;5553;48.506;8.870;2023-05-03T08:51:46;97139.28;;;15.40;100.00
11001;BME280;5553;48.506;8.870;2023-05-03T08:54:15;97156.19;;;14.05;100.00
11001;BME280;5553;48.506;8.870;2023-05-03T08:56:45;97168.69;;;15.72;100.00
11001;BME280;5553;48.506;8.870;2023-05-03T08:59:13;97172.19;;;15.06;100.00
11001;BME280;5553;48.506;8.870;2023-05-03T09:01:44;97157.88;;;15.67;100.00
11001;BME280;5553;48.506;8.870;2023-05-03T09:04:12;97130.44;;;16.31;100.00
11001;BME280;5553;48.506;8.870;2023-05-03T09:06:41;97132.44;;;16.74;100.00
11001;BME280;5553;48.506;8.870;2023-05-03T09:09:09;97115.38;;;16.81;96.15
11001;BME280;5553;48.506;8.870;2023-05-03T09:11:38;97118.03;;;17.13;94.25
11001;BME280;5553;48.506;8.870;2023-05-03T09:14:08;97138.72;;;16.09;100.00
11001;BME280;5553;48.506;8.870;2023-05-03T09:16:37;97146.84;;;17.23;98.35
11001;BME280;5553;48.506;8.870;2023-05-03T09:19:08;97123.63;;;15.97;97.28
11001;BME280;5553;48.506;8.870;2023-05-03T09:21:37;97151.44;;;18.03;97.14
11001;BME280;5553;48.506;8.870;2023-05-03T09:24:11;97137.22;;;18.69;92.95
11001;BME280;5553;48.506;8.870;2023-05-03T09:26:41;97100.25;;;18.54;87.56
11001;BME280;5553;48.506;8.870;2023-05-03T09:29:26;97097.03;;;17.42;88.30
11001;BME280;5553;48.506;8.870;2023-05-03T09:31:58;97120.31;;;18.87;88.64
11001;BME280;5553;48.506;8.870;2023-05-03T09:34:32;97054.47;;;17.90;81.89
11001;BME280;5553;48.506;8.870;2023-05-03T09:37:01;97075.47;;;18.17;84.23
11001;BME280;5553;48.506;8.870;2023-05-03T09:39:29;97061.44;;;18.21;81.04
11001;BME280;5553;48.506;8.870;2023-05-03T09:42:09;97088.53;;;19.32;83.30
11001;BME280;5553;48.506;8.870;2023-05-03T09:44:45;97095.63;;;19.74;84.10
11001;BME280;5553;48.506;8.870;2023-05-03T09:47:16;97030.16;;;18.82;76.03
11001;BME280;5553;48.506;8.870;2023-05-03T09:49:47;97042.72;;;19.05;77.41
11001;BME280;5553;48.506;8.870;2023-05-03T09:52:15;97035.81;;;19.80;74.77
11001;BME280;5553;48.506;8.870;2023-05-03T09:54:44;97052.59;;;20.32;75.16
11001;BME280;5553;48.506;8.870;2023-05-03T09:57:13;97074.94;;;21.17;76.81
11001;BME280;5553;48.506;8.870;2023-05-03T09:59:44;97049.69;;;20.63;73.61
11001;BME280;5553;48.506;8.870;2023-05-03T10:02:15;97075.50;;;21.36;75.47
11001;BME280;5553;48.506;8.870;2023-05-03T10:04:50;97061.69;;;20.60;74.26
11001;BME280;5553;48.506;8.870;2023-05-03T10:07:22;97010.03;;;20.81;68.40
11001;BME280;5553;48.506;8.870;2023-05-03T10:09:51;97042.50;;;21.02;71.50
11001;BME280;5553;48.506;8.870;2023-05-03T10:12:21;97045.13;;;20.97;71.26
11001;BME280;5553;48.506;8.870;2023-05-03T10:14:51;97050.78;;;21.51;70.70
11001;BME280;5553;48.506;8.870;2023-05-03T10:17:24;97026.56;;;21.90;68.01
11001;BME280;5553;48.506;8.870;2023-05-03T10:20:06;97050.50;;;22.67;68.79
11001;BME280;5553;48.506;8.870;2023-05-03T10:23:07;97009.13;;;21.70;66.90
11001;BME280;5553;48.506;8.870;2023-05-03T10:25:38;96990.34;;;21.70;63.47
11001;BME280;5553;48.506;8.870;2023-05-03T10:28:07;96980.94;;;21.29;63.66
11001;BME280;5553;48.506;8.870;2023-05-03T10:30:37;97007.34;;;21.76;65.89
11001;BME280;5553;48.506;8.870;2023-05-03T10:33:29;97012.56;;;22.37;63.92
11001;BME280;5553;48.506;8.870;2023-05-03T10:36:04;96986.47;;;22.97;60.64
11001;BME280;5553;48.506;8.870;2023-05-03T10:38:35;96996.38;;;22.59;61.69
11001;BME280;5553;48.506;8.870;2023-05-03T10:41:04;96954.69;;;22.24;58.88
11001;BME280;5553;48.506;8.870;2023-05-03T10:43:42;96947.66;;;21.96;58.76
11001;BME280;5553;48.506;8.870;2023-05-03T10:46:29;96952.44;;;21.89;59.54
11001;BME280;5553;48.506;8.870;2023-05-03T10:49:13;96937.03;;;22.06;56.67
11001;BME280;5553;48.506;8.870;2023-05-03T10:51:45;96963.41;;;21.87;60.25
11001;BME280;5553;48.506;8.870;2023-05-03T10:54:13;96932.16;;;22.03;56.83
11001;BME280;5553;48.506;8.870;2023-05-03T10:56:54;96915.84;;;22.74;54.73
11001;BME280;5553;48.506;8.870;2023-05-03T10:59:23;96907.59;;;22.91;53.16
11001;BME280;5553;48.506;8.870;2023-05-03T11:01:51;96894.34;;;23.22;51.53
11001;BME280;5553;48.506;8.870;2023-05-03T11:04:38;96887.63;;;22.82;51.91
11001;BME280;5553;48.506;8.870;2023-05-03T11:07:18;96922.47;;;23.04;54.96
11001;BME280;5553;48.506;8.870;2023-05-03T11:09:46;96840.97;;;23.03;48.39
11001;BME280;5553;48.506;8.870;2023-05-03T11:12:15;96827.78;;;23.02;47.68
11001;BME280;5553;48.506;8.870;2023-05-03T11:14:43;96841.38;;;23.42;47.69
11001;BME280;5553;48.506;8.870;2023-05-03T11:17:11;96858.75;;;23.14;49.32
11001;BME280;5553;48.506;8.870;2023-05-03T11:19:41;96844.81;;;22.28;49.96
11001;BME280;5553;48.506;8.870;2023-05-03T11:22:13;96829.34;;;22.45;49.15
11001;BME280;5553;48.506;8.870;2023-05-03T11:24:41;96814.38;;;21.09;50.60
11001;BME280;5553;48.506;8.870;2023-05-03T11:27:10;96845.56;;;21.91;51.24
11001;BME280;5553;48.506;8.870;2023-05-03T11:29:40;96829.09;;;20.62;52.73
11001;BME280;5553;48.506;8.870;2023-05-03T11:32:08;96826.97;;;21.57;50.90
11001;BME280;5553;48.506;8.870;2023-05-03T11:34:37;96842.31;;;22.58;50.80
11001;BME280;5553;48.506;8.870;2023-05-03T11:37:07;96832.09;;;21.86;51.00
11001;BME280;5553;48.506;8.870;2023-05-03T11:39:38;96831.13;;;22.77;49.92
11001;BME280;5553;48.506;8.870;2023-05-03T11:42:06;96861.16;;;24.15;48.81
11001;BME280;5553;48.506;8.870;2023-05-03T11:44:34;96761.44;;;22.70;45.26
11001;BME280;5553;48.506;8.870;2023-05-03T11:47:03;96757.59;;;22.08;46.26
11001;BME280;5553;48.506;8.870;2023-05-03T11:49:31;96780.38;;;22.33;46.82
11001;BME280;5553;48.506;8.870;2023-05-03T11:52:00;96827.38;;;23.35;47.76
11001;BME280;5553;48.506;8.870;2023-05-03T11:54:28;96836.88;;;23.74;47.49
11001;BME280;5553;48.506;8.870;2023-05-03T11:57:10;96819.06;;;24.54;44.84
11001;BME280;5553;48.506;8.870;2023-05-03T11:59:39;96783.22;;;23.47;44.35
11001;BME280;5553;48.506;8.870;2023-05-03T12:02:11;96781.81;;;22.56;46.17
11001;BME280;5553;48.506;8.870;2023-05-03T12:04:41;96757.16;;;22.16;45.25
11001;BME280;5553;48.506;8.870;2023-05-03T12:07:10;96851.31;;;23.37;48.88
11001;BME280;5553;48.506;8.870;2023-05-03T12:09:39;96764.66;;;23.50;42.79
11001;BME280;5553;48.506;8.870;2023-05-03T12:12:17;96835.25;;;24.13;46.21
11001;BME280;5553;48.506;8.870;2023-05-03T12:15:04;96767.13;;;23.82;42.78
11001;BME280;5553;48.506;8.870;2023-05-03T12:17:33;96752.88;;;23.77;42.34
11001;BME280;5553;48.506;8.870;2023-05-03T12:20:15;96808.88;;;24.16;44.77
11001;BME280;5553;48.506;8.870;2023-05-03T12:22:47;96816.41;;;24.03;45.34
11001;BME280;5553;48.506;8.870;2023-05-03T12:25:15;96772.66;;;23.14;44.78
11001;BME280;5553;48.506;8.870;2023-05-03T12:27:46;96782.59;;;21.44;48.53
11001;BME280;5553;48.506;8.870;2023-05-03T12:30:14;96770.63;;;21.57;47.54
11001;BME280;5553;48.506;8.870;2023-05-03T12:32:43;96798.84;;;23.39;46.10
11001;BME280;5553;48.506;8.870;2023-05-03T12:35:11;96790.78;;;22.77;46.81
11001;BME280;5553;48.506;8.870;2023-05-03T12:37:40;96759.38;;;20.84;48.48
11001;BME280;5553;48.506;8.870;2023-05-03T12:40:09;96766.25;;;20.36;49.72
11001;BME280;5553;48.506;8.870;2023-05-03T12:42:38;96745.38;;;19.49;50.44
11001;BME280;5553;48.506;8.870;2023-05-03T12:45:10;96752.47;;;21.69;45.94
11001;BME280;5553;48.506;8.870;2023-05-03T12:47:39;96789.00;;;22.40;47.96
11001;BME280;5553;48.506;8.870;2023-05-03T12:50:08;96790.28;;;21.63;49.98
11001;BME280;5553;48.506;8.870;2023-05-03T12:52:36;96728.09;;;20.68;47.14
11001;BME280;5553;48.506;8.870;2023-05-03T12:55:06;96724.06;;;20.65;47.37
11001;BME280;5553;48.506;8.870;2023-05-03T12:57:34;96760.88;;;22.63;45.44
11001;BME280;5553;48.506;8.870;2023-05-03T13:00:04;96771.69;;;23.67;44.25
11001;BME280;5553;48.506;8.870;2023-05-03T13:02:36;96685.84;;;22.56;41.70
11001;BME280;5553;48.506;8.870;2023-05-03T13:05:04;96741.81;;;22.69;44.59
11001;BME280;5553;48.506;8.870;2023-05-03T13:07:33;96759.50;;;22.50;46.27
11001;BME280;5553;48.506;8.870;2023-05-03T13:10:01;96750.97;;;22.63;45.46
11001;BME280;5553;48.506;8.870;2023-05-03T13:12:31;96758.25;;;23.97;43.33
11001;BME280;5553;48.506;8.870;2023-05-03T13:15:01;96741.81;;;23.94;42.60
11001;BME280;5553;48.506;8.870;2023-05-03T13:17:30;96769.00;;;24.07;43.56
11001;BME280;5553;48.506;8.870;2023-05-03T13:20:01;96692.19;;;21.87;43.81
11001;BME280;5553;48.506;8.870;2023-05-03T13:22:31;96724.75;;;21.32;46.75
11001;BME280;5553;48.506;8.870;2023-05-03T13:24:59;96740.69;;;22.55;44.92
11001;BME280;5553;48.506;8.870;2023-05-03T13:27:28;96776.03;;;23.78;45.03
11001;BME280;5553;48.506;8.870;2023-05-03T13:29:57;96744.50;;;24.04;43.36
11001;BME280;5553;48.506;8.870;2023-05-03T13:32:25;96663.88;;;21.64;43.91
11001;BME280;5553;48.506;8.870;2023-05-03T13:34:53;96692.38;;;21.38;45.86
11001;BME280;5553;48.506;8.870;2023-05-03T13:37:24;96686.78;;;20.42;47.46
11001;BME280;5553;48.506;8.870;2023-05-03T13:39:53;96700.63;;;19.95;49.10
11001;BME280;5553;48.506;8.870;2023-05-03T13:42:21;96705.00;;;20.01;48.71
11001;BME280;5553;48.506;8.870;2023-05-03T13:44:49;96715.97;;;21.36;47.25
11001;BME280;5553;48.506;8.870;2023-05-03T13:47:17;96723.00;;;22.69;44.37
11001;BME280;5553;48.506;8.870;2023-05-03T13:49:46;96691.69;;;22.33;44.08
11001;BME280;5553;48.506;8.870;2023-05-03T13:52:14;96683.00;;;20.59;47.27
11001;BME280;5553;48.506;8.870;2023-05-03T13:54:45;96733.38;;;21.34;47.95
11001;BME280;5553;48.506;8.870;2023-05-03T13:57:14;96688.91;;;22.17;43.70
11001;BME280;5553;48.506;8.870;2023-05-03T13:59:42;96670.31;;;22.63;42.23
11001;BME280;5553;48.506;8.870;2023-05-03T14:02:10;96706.06;;;22.64;44.03
11001;BME280;5553;48.506;8.870;2023-05-03T14:04:39;96692.22;;;22.30;44.67
11001;BME280;5553;48.506;8.870;2023-05-03T14:07:08;96629.59;;;20.31;44.54
11001;BME280;5553;48.506;8.870;2023-05-03T14:09:36;96666.59;;;19.73;48.02
11001;BME280;5553;48.506;8.870;2023-05-03T14:12:07;96625.63;;;19.73;45.00
11001;BME280;5553;48.506;8.870;2023-05-03T14:14:35;96660.06;;;20.96;45.12
11001;BME280;5553;48.506;8.870;2023-05-03T14:17:04;96704.00;;;21.86;46.36
11001;BME280;5553;48.506;8.870;2023-05-03T14:19:34;96692.81;;;22.47;44.29
11001;BME280;5553;48.506;8.870;2023-05-03T14:22:03;96660.88;;;22.03;43.70
11001;BME280;5553;48.506;8.870;2023-05-03T14:24:32;96656.19;;;21.78;43.84
11001;BME280;5553;48.506;8.870;2023-05-03T14:27:01;96653.91;;;19.85;47.61
11001;BME280;5553;48.506;8.870;2023-05-03T14:29:31;96640.16;;;19.26;48.13
11001;BME280;5553;48.506;8.870;2023-05-03T14:32:00;96642.53;;;18.77;48.74
11001;BME280;5553;48.506;8.870;2023-05-03T14:34:28;96675.31;;;19.85;47.99
11001;BME280;5553;48.506;8.870;2023-05-03T14:36:56;96666.66;;;20.61;46.59
11001;BME280;5553;48.506;8.870;2023-05-03T14:39:24;96678.03;;;21.27;46.08
11001;BME280;5553;48.506;8.870;2023-05-03T14:41:53;96650.72;;;21.30;44.79
11001;BME280;5553;48.506;8.870;2023-05-03T14:44:21;96645.25;;;21.52;44.14
11001;BME280;5553;48.506;8.870;2023-05-03T14:46:52;96623.53;;;21.54;43.23
11001;BME280;5553;48.506;8.870;2023-05-03T14:49:23;96611.19;;;21.21;43.08
11001;BME280;5553;48.506;8.870;2023-05-03T14:51:51;96606.53;;;21.11;43.53
11001;BME280;5553;48.506;8.870;2023-05-03T14:54:19;96611.69;;;21.18;43.86
11001;BME280;5553;48.506;8.870;2023-05-03T14:56:47;96638.19;;;21.84;43.65
11001;BME280;5553;48.506;8.870;2023-05-03T14:59:16;96607.94;;;20.87;44.01
11001;BME280;5553;48.506;8.870;2023-05-03T15:01:44;96643.66;;;20.65;46.68
11001;BME280;5553;48.506;8.870;2023-05-03T15:04:15;96636.66;;;20.64;46.52
11001;BME280;5553;48.506;8.870;2023-05-03T15:06:43;96612.94;;;19.85;46.88
11001;BME280;5553;48.506;8.870;2023-05-03T15:09:12;96610.84;;;20.09;46.02
11001;BME280;5553;48.506;8.870;2023-05-03T15:11:40;96592.59;;;20.06;44.88
11001;BME280;5553;48.506;8.870;2023-05-03T15:14:09;96637.75;;;20.90;45.39
11001;BME280;5553;48.506;8.870;2023-05-03T15:16:38;96663.47;;;20.64;47.58
11001;BME280;5553;48.506;8.870;2023-05-03T15:19:06;96669.59;;;19.99;49.22
11001;BME280;5553;48.506;8.870;2023-05-03T15:21:46;96639.41;;;19.14;49.33
11001;BME280;5553;48.506;8.870;2023-05-03T15:24:16;96601.41;;;18.50;48.56
11001;BME280;5553;48.506;8.870;2023-05-03T15:26:44;96629.03;;;18.15;50.08
11001;BME280;5553;48.506;8.870;2023-05-03T15:29:13;96622.34;;;18.41;49.22
11001;BME280;5553;48.506;8.870;2023-05-03T15:31:42;96624.66;;;18.66;48.95
11001;BME280;5553;48.506;8.870;2023-05-03T15:34:10;96629.75;;;18.79;49.05
11001;BME280;5553;48.506;8.870;2023-05-03T15:36:38;96648.25;;;19.14;49.27
11001;BME280;5553;48.506;8.870;2023-05-03T15:39:10;96653.66;;;19.03;49.44
11001;BME280;5553;48.506;8.870;2023-05-03T15:41:38;96665.31;;;18.97;50.54
11001;BME280;5553;48.506;8.870;2023-05-03T15:44:06;96672.13;;;18.87;51.75
11001;BME280;5553;48.506;8.870;2023-05-03T15:46:35;96661.38;;;18.99;50.53
11001;BME280;5553;48.506;8.870;2023-05-03T15:49:03;96651.22;;;18.84;50.16
11001;BME280;5553;48.506;8.870;2023-05-03T15:51:31;96652.19;;;18.78;50.37
11001;BME280;5553;48.506;8.870;2023-05-03T15:54:01;96675.81;;;19.15;50.90
11001;BME280;5553;48.506;8.870;2023-05-03T15:56:32;96681.28;;;18.91;51.99
11001;BME280;5553;48.506;8.870;2023-05-03T15:59:01;96668.75;;;18.80;52.07
11001;BME280;5553;48.506;8.870;2023-05-03T16:01:30;96650.03;;;18.52;50.98
11001;BME280;5553;48.506;8.870;2023-05-03T16:03:58;96641.03;;;17.89;51.58
11001;BME280;5553;48.506;8.870;2023-05-03T16:06:26;96637.78;;;17.87;51.40
11001;BME280;5553;48.506;8.870;2023-05-03T16:08:55;96636.72;;;17.29;52.37
11001;BME280;5553;48.506;8.870;2023-05-03T16:11:24;96658.41;;;17.33;53.19
11001;BME280;5553;48.506;8.870;2023-05-03T16:13:55;96657.72;;;17.72;52.81
11001;BME280;5553;48.506;8.870;2023-05-03T16:16:23;96668.06;;;17.69;53.76
11001;BME280;5553;48.506;8.870;2023-05-03T16:18:51;96666.94;;;17.88;52.88
11001;BME280;5553;48.506;8.870;2023-05-03T16:21:19;96672.72;;;17.85;53.50
11001;BME280;5553;48.506;8.870;2023-05-03T16:23:48;96641.47;;;17.74;51.75
11001;BME280;5553;48.506;8.870;2023-05-03T16:26:16;96624.78;;;17.90;50.71
11001;BME280;5553;48.506;8.870;2023-05-03T16:28:44;96649.84;;;17.54;52.90
11001;BME280;5553;48.506;8.870;2023-05-03T16:31:15;96630.13;;;17.55;51.17
11001;BME280;5553;48.506;8.870;2023-05-03T16:33:43;96636.75;;;17.52;51.74
11001;BME280;5553;48.506;8.870;2023-05-03T16:36:11;96605.66;;;17.58;49.94
11001;BME280;5553;48.506;8.870;2023-05-03T16:38:40;96616.31;;;17.46;50.88
11001;BME280;5553;48.506;8.870;2023-05-03T16:41:08;96632.56;;;17.68;51.79
11001;BME280;5553;48.506;8.870;2023-05-03T16:43:36;96638.72;;;17.34;53.00
11001;BME280;5553;48.506;8.870;2023-05-03T16:46:05;96623.06;;;17.61;51.25
11001;BME280;5553;48.506;8.870;2023-05-03T16:48:36;96657.50;;;17.39;53.69
11001;BME280;5553;48.506;8.870;2023-05-03T16:51:04;96658.75;;;17.36;54.19
11001;BME280;5553;48.506;8.870;2023-05-03T16:53:33;96651.59;;;17.37;54.04
11001;BME280;5553;48.506;8.870;2023-05-03T16:56:01;96646.47;;;17.23;53.97
11001;BME280;5553;48.506;8.870;2023-05-03T16:58:29;96632.09;;;17.36;52.86
11001;BME280;5553;48.506;8.870;2023-05-03T17:00:58;96624.81;;;17.55;52.07
11001;BME280;5553;48.506;8.870;2023-05-03T17:03:26;96623.06;;;17.37;52.43
11001;BME280;5553;48.506;8.870;2023-05-03T17:05:57;96617.97;;;17.24;51.98
11001;BME280;5553;48.506;8.870;2023-05-03T17:08:26;96630.44;;;17.12;53.06
11001;BME280;5553;48.506;8.870;2023-05-03T17:10:54;96628.13;;;17.03;53.18
11001;BME280;5553;48.506;8.870;2023-05-03T17:13:23;96618.09;;;16.75;53.44
11001;BME280;5553;48.506;8.870;2023-05-03T17:15:52;96624.50;;;16.56;54.64
11001;BME280;5553;48.506;8.870;2023-05-03T17:18:20;96636.56;;;16.58;55.17
11001;BME280;5553;48.506;8.870;2023-05-03T17:20:48;96626.16;;;16.69;54.45
11001;BME280;5553;48.506;8.870;2023-05-03T17:23:19;96645.03;;;16.67;55.61
11001;BME280;5553;48.506;8.870;2023-05-03T17:25:47;96655.94;;;16.47;56.58
11001;BME280;5553;48.506;8.870;2023-05-03T17:28:16;96645.88;;;16.49;55.72
11001;BME280;5553;48.506;8.870;2023-05-03T17:30:44;96646.22;;;16.41;55.88
11001;BME280;5553;48.506;8.870;2023-05-03T17:33:12;96651.53;;;16.41;55.93
11001;BME280;5553;48.506;8.870;2023-05-03T17:35:40;96656.03;;;16.41;56.21
11001;BME280;5553;48.506;8.870;2023-05-03T17:38:09;96661.31;;;16.29;56.90
11001;BME280;5553;48.506;8.870;2023-05-03T17:40:39;96661.31;;;16.10;57.55
11001;BME280;5553;48.506;8.870;2023-05-03T17:43:09;96655.47;;;15.83;58.11
11001;BME280;5553;48.506;8.870;2023-05-03T17:45:37;96655.13;;;15.80;57.33
11001;BME280;5553;48.506;8.870;2023-05-03T17:48:05;96670.03;;;15.81;57.92
11001;BME280;5553;48.506;8.870;2023-05-03T17:50:34;96663.09;;;15.80;57.48
11001;BME280;5553;48.506;8.870;2023-05-03T17:53:02;96663.22;;;15.67;58.03
11001;BME280;5553;48.506;8.870;2023-05-03T17:55:33;96673.63;;;15.43;59.25
11001;BME280;5553;48.506;8.870;2023-05-03T17:58:04;96692.34;;;15.30;60.88
11001;BME280;5553;48.506;8.870;2023-05-03T18:00:33;96684.25;;;15.18;60.58
11001;BME280;5553;48.506;8.870;2023-05-03T18:03:02;96688.13;;;15.22;60.41
11001;BME280;5553;48.506;8.870;2023-05-03T18:05:32;96696.56;;;15.12;61.22
11001;BME280;5553;48.506;8.870;2023-05-03T18:08:01;96709.59;;;14.89;62.41
11001;BME280;5553;48.506;8.870;2023-05-03T18:10:30;96723.72;;;14.83;63.37
11001;BME280;5553;48.506;8.870;2023-05-03T18:12:58;96730.75;;;14.64;64.97
11001;BME280;5553;48.506;8.870;2023-05-03T18:15:31;96739.16;;;14.61;65.12
11001;BME280;5553;48.506;8.870;2023-05-03T18:17:59;96733.03;;;14.60;64.82
11001;BME280;5553;48.506;8.870;2023-05-03T18:20:27;96742.63;;;14.48;65.66
11001;BME280;5553;48.506;8.870;2023-05-03T18:22:56;96745.13;;;14.36;65.39
11001;BME280;5553;48.506;8.870;2023-05-03T18:25:24;96749.44;;;14.31;65.65
11001;BME280;5553;48.506;8.870;2023-05-03T18:27:52;96755.78;;;14.30;66.45
11001;BME280;5553;48.506;8.870;2023-05-03T18:30:21;96752.91;;;14.25;66.31
11001;BME280;5553;48.506;8.870;2023-05-03T18:32:52;96758.06;;;14.19;66.96
11001;BME280;5553;48.506;8.870;2023-05-03T18:35:21;96771.34;;;14.06;68.13
11001;BME280;5553;48.506;8.870;2023-05-03T18:37:49;96776.88;;;13.85;68.95
11001;BME280;5553;48.506;8.870;2023-05-03T18:40:18;96778.69;;;13.78;69.77
11001;BME280;5553;48.506;8.870;2023-05-03T18:42:46;96784.03;;;13.71;70.13
11001;BME280;5553;48.506;8.870;2023-05-03T18:45:15;96785.66;;;13.65;70.35
11001;BME280;5553;48.506;8.870;2023-05-03T18:47:44;96786.47;;;13.59;71.01
11001;BME280;5553;48.506;8.870;2023-05-03T18:50:15;96796.66;;;13.49;71.81
11001;BME280;5553;48.506;8.870;2023-05-03T18:52:44;96805.22;;;13.51;72.42
11001;BME280;5553;48.506;8.870;2023-05-03T18:55:12;96806.00;;;13.32;73.31
11001;BME280;5553;48.506;8.870;2023-05-03T18:57:41;96811.94;;;13.34;73.60